createdAt,value
2019-03-05T00:01:33.588Z,32.01
2019-03-05T00:03:59.987Z,31.96
2019-03-05T00:06:26.324Z,32.17
2019-03-05T00:08:52.701Z,32.16
2019-03-05T00:11:19.020Z,32.07
2019-03-05T00:13:45.353Z,32.11
2019-03-05T00:16:11.726Z,32.01
2019-03-05T00:18:38.132Z,32.05
2019-03-05T00:21:04.550Z,32.11
2019-03-05T00:23:33.701Z,32.11
2019-03-05T00:26:00.087Z,32.16
2019-03-05T00:28:26.420Z,32.31
2019-03-05T00:30:52.787Z,32.22
2019-03-05T00:33:19.181Z,32.17
2019-03-05T00:35:45.568Z,32.03
2019-03-05T00:38:11.910Z,32.16
2019-03-05T00:40:38.250Z,32.24
2019-03-05T00:43:04.589Z,32.22
2019-03-05T00:45:30.945Z,32.28
2019-03-05T00:47:57.334Z,32.51
2019-03-05T00:50:23.731Z,32.24
2019-03-05T00:52:50.060Z,32.19
2019-03-05T00:55:16.405Z,32.26
2019-03-05T00:57:42.746Z,32.23
2019-03-05T01:00:09.239Z,32.31
2019-03-05T01:02:35.566Z,32.33
2019-03-05T01:05:01.908Z,32.12
2019-03-05T01:07:28.261Z,32.05
2019-03-05T01:09:54.668Z,31.88
2019-03-05T01:12:21.003Z,31.60
2019-03-05T01:14:47.357Z,31.18
2019-03-05T01:17:13.687Z,31.10
2019-03-05T01:19:40.205Z,31.11
2019-03-05T01:22:06.552Z,30.75
2019-03-05T01:24:32.936Z,30.83
2019-03-05T01:26:59.278Z,30.73
2019-03-05T01:29:25.721Z,30.85
2019-03-05T01:31:52.013Z,30.64
2019-03-05T01:34:18.390Z,30.69
2019-03-05T01:36:44.805Z,30.53
2019-03-05T01:39:11.149Z,30.37
2019-03-05T01:41:37.498Z,30.37
2019-03-05T01:44:03.880Z,30.49
2019-03-05T01:46:30.222Z,30.43
2019-03-05T01:48:56.564Z,30.39
2019-03-05T01:51:22.908Z,30.41
2019-03-05T01:53:49.250Z,30.40
2019-03-05T01:56:15.659Z,30.18
2019-03-05T01:58:42.033Z,30.36
2019-03-05T02:01:08.397Z,30.08
2019-03-05T02:03:34.714Z,30.18
2019-03-05T02:06:01.106Z,30.11
2019-03-05T02:08:27.574Z,30.10
2019-03-05T02:10:53.978Z,30.07
2019-03-05T02:13:20.329Z,30.29
2019-03-05T02:15:46.667Z,30.05
2019-03-05T02:18:13.070Z,30.01
2019-03-05T02:20:39.483Z,29.80
2019-03-05T02:23:05.953Z,29.62
2019-03-05T02:25:32.235Z,29.65
2019-03-05T02:27:58.582Z,29.62
2019-03-05T02:30:24.968Z,29.53
2019-03-05T02:32:51.418Z,29.49
2019-03-05T02:35:17.756Z,29.42
2019-03-05T02:37:44.124Z,29.39
2019-03-05T02:40:10.612Z,29.32
2019-03-05T02:42:36.954Z,29.32
2019-03-05T02:45:03.296Z,29.25
2019-03-05T02:47:29.767Z,29.30
2019-03-05T02:49:56.016Z,29.21
2019-03-05T02:52:22.389Z,29.19
2019-03-05T02:54:48.772Z,29.09
2019-03-05T02:57:15.162Z,29.17
2019-03-05T02:59:41.512Z,29.05
2019-03-05T03:02:07.867Z,28.98
2019-03-05T03:04:34.204Z,28.90
2019-03-05T03:07:00.557Z,28.93
2019-03-05T03:09:26.905Z,28.93
2019-03-05T03:11:53.296Z,28.90
2019-03-05T03:14:19.572Z,28.98
2019-03-05T03:16:45.950Z,28.97
2019-03-05T03:19:12.305Z,28.89
2019-03-05T03:21:38.746Z,28.88
2019-03-05T03:24:05.101Z,28.82
2019-03-05T03:26:31.429Z,28.86
2019-03-05T03:28:59.036Z,28.77
2019-03-05T03:31:24.133Z,28.75
2019-03-05T03:33:50.471Z,28.75
2019-03-05T03:36:16.860Z,28.76
2019-03-05T03:38:43.293Z,28.76
2019-03-05T03:41:09.623Z,28.82
2019-03-05T03:43:35.952Z,28.77
2019-03-05T03:46:02.294Z,28.85
2019-03-05T03:48:28.645Z,28.89
2019-03-05T03:50:54.989Z,28.79
2019-03-05T03:53:21.344Z,28.64
2019-03-05T03:55:47.703Z,28.70
2019-03-05T03:58:14.215Z,28.80
2019-03-05T04:00:40.552Z,28.70
2019-03-05T04:03:06.900Z,28.73
2019-03-05T04:05:33.253Z,28.76
2019-03-05T04:07:59.602Z,28.74
2019-03-05T04:10:25.983Z,29.10
2019-03-05T04:12:52.323Z,28.75
2019-03-05T04:15:18.703Z,29.37
2019-03-05T04:17:45.041Z,29.10
2019-03-05T04:20:11.502Z,29.59
2019-03-05T04:22:37.859Z,29.42
2019-03-05T04:25:04.202Z,29.34
2019-03-05T04:27:30.542Z,29.41
2019-03-05T04:29:56.910Z,29.34
2019-03-05T04:32:23.942Z,29.17
2019-03-05T04:34:49.787Z,29.06
2019-03-05T04:37:16.226Z,28.93
2019-03-05T04:39:42.570Z,29.00
2019-03-05T04:42:08.917Z,28.84
2019-03-05T04:44:35.263Z,28.90
2019-03-05T04:47:01.608Z,28.84
2019-03-05T04:49:28.017Z,28.81
2019-03-05T04:51:54.360Z,28.76
2019-03-05T04:54:20.704Z,28.76
2019-03-05T04:56:47.042Z,28.67
2019-03-05T04:59:13.395Z,28.63
2019-03-05T05:01:39.714Z,28.61
2019-03-05T05:04:06.025Z,28.58
2019-03-05T05:06:32.391Z,28.66
2019-03-05T05:08:58.767Z,28.65
2019-03-05T05:11:25.115Z,28.54
2019-03-05T05:13:51.447Z,28.44
2019-03-05T05:16:17.778Z,28.51
2019-03-05T05:18:44.159Z,28.42
2019-03-05T05:21:10.490Z,28.32
2019-03-05T05:23:36.810Z,28.28
2019-03-05T05:26:03.143Z,28.37
2019-03-05T05:28:29.462Z,28.37
2019-03-05T05:30:55.851Z,28.34
2019-03-05T05:33:22.179Z,28.26
2019-03-05T05:35:48.567Z,28.30
2019-03-05T05:38:14.982Z,28.19
2019-03-05T05:40:41.367Z,28.32
2019-03-05T05:43:07.801Z,28.38
2019-03-05T05:45:34.150Z,28.42
2019-03-05T05:48:00.526Z,28.26
2019-03-05T05:50:26.845Z,28.41
2019-03-05T05:52:53.217Z,28.57
2019-03-05T05:55:19.548Z,28.56
2019-03-05T05:57:45.868Z,28.40
2019-03-05T06:00:12.236Z,28.50
2019-03-05T06:02:38.586Z,28.44
2019-03-05T06:05:05.000Z,28.49
2019-03-05T06:07:31.457Z,28.35
2019-03-05T06:09:57.860Z,28.33
2019-03-05T06:12:24.217Z,28.39
2019-03-05T06:14:50.547Z,28.66
2019-03-05T06:17:16.935Z,28.62
2019-03-05T06:19:43.306Z,28.34
2019-03-05T06:22:09.751Z,28.67
2019-03-05T06:24:36.197Z,28.82
2019-03-05T06:27:02.726Z,28.71
2019-03-05T06:29:29.136Z,28.73
2019-03-05T06:31:55.518Z,28.88
2019-03-05T06:34:21.896Z,28.79
2019-03-05T06:36:48.234Z,28.86
2019-03-05T06:39:14.673Z,28.84
2019-03-05T06:41:41.005Z,29.29
2019-03-05T06:44:09.384Z,28.98
2019-03-05T06:46:33.775Z,28.91
2019-03-05T06:49:02.605Z,29.87
2019-03-05T06:51:29.090Z,28.72
2019-03-05T06:53:55.454Z,27.71
2019-03-05T06:56:21.831Z,28.24
2019-03-05T06:58:48.183Z,28.85
2019-03-05T07:01:14.546Z,28.59
2019-03-05T07:03:41.057Z,28.24
2019-03-05T07:06:07.410Z,27.73
2019-03-05T07:08:36.199Z,27.95
2019-03-05T07:11:02.599Z,27.89
2019-03-05T07:13:28.930Z,28.34
2019-03-05T07:15:55.288Z,28.49
2019-03-05T07:18:23.785Z,28.05
2019-03-05T07:20:50.199Z,27.72
2019-03-05T07:23:16.484Z,28.52
2019-03-05T07:25:42.835Z,28.32
2019-03-05T07:28:09.226Z,28.60
2019-03-05T07:30:36.936Z,27.61
2019-03-05T07:33:01.996Z,27.87
2019-03-05T07:35:28.340Z,27.79
2019-03-05T07:37:54.670Z,28.07
2019-03-05T07:40:21.061Z,27.83
2019-03-05T07:42:47.569Z,27.62
2019-03-05T07:45:13.919Z,27.99
2019-03-05T07:47:40.322Z,27.83
2019-03-05T07:50:08.901Z,27.88
2019-03-05T07:52:35.231Z,28.88
2019-03-05T07:55:12.981Z,28.97
2019-03-05T07:57:27.951Z,28.58
2019-03-05T07:59:54.300Z,28.76
2019-03-05T08:02:20.623Z,28.79
2019-03-05T08:04:46.961Z,28.81
2019-03-05T08:07:13.285Z,28.83
2019-03-05T08:09:39.641Z,28.53
2019-03-05T08:12:05.987Z,28.49
2019-03-05T08:14:34.583Z,28.75
2019-03-05T08:17:01.003Z,28.19
2019-03-05T08:19:27.313Z,28.49
2019-03-05T08:21:53.675Z,28.67
2019-03-05T08:24:20.067Z,28.17
2019-03-05T08:26:46.832Z,28.25
2019-03-05T08:29:13.555Z,28.33
2019-03-05T08:31:39.904Z,27.89
2019-03-05T08:34:06.334Z,27.56
2019-03-05T08:36:32.675Z,27.70
2019-03-05T08:38:59.107Z,27.72
2019-03-05T08:41:25.462Z,27.52
2019-03-05T08:43:54.229Z,27.75
2019-03-05T08:46:18.166Z,27.40
2019-03-05T08:48:44.552Z,28.39
2019-03-05T08:51:10.890Z,28.24
2019-03-05T08:53:37.231Z,28.21
2019-03-05T08:56:03.621Z,27.00
2019-03-05T08:58:29.957Z,27.89
2019-03-05T09:00:56.403Z,28.55
2019-03-05T09:03:22.801Z,27.29
2019-03-05T09:05:49.149Z,27.36
2019-03-05T09:08:15.501Z,27.39
2019-03-05T09:10:42.007Z,27.43
2019-03-05T09:13:08.413Z,26.80
2019-03-05T09:15:34.724Z,27.54
2019-03-05T09:18:01.133Z,26.63
2019-03-05T09:20:27.541Z,26.74
2019-03-05T09:22:53.913Z,26.29
2019-03-05T09:25:20.306Z,26.58
2019-03-05T09:27:46.710Z,26.36
2019-03-05T09:30:12.996Z,26.31
2019-03-05T09:32:39.501Z,26.40
2019-03-05T09:35:05.845Z,26.38
2019-03-05T09:37:32.176Z,26.58
2019-03-05T09:39:58.514Z,26.37
2019-03-05T09:42:25.053Z,26.32
2019-03-05T09:44:51.432Z,26.28
2019-03-05T09:47:17.812Z,26.29
2019-03-05T09:49:44.162Z,26.39
2019-03-05T09:52:10.535Z,26.76
2019-03-05T09:54:36.946Z,26.93
2019-03-05T09:57:03.301Z,26.87
2019-03-05T09:59:29.690Z,26.42
2019-03-05T10:01:56.028Z,26.50
2019-03-05T10:04:22.636Z,26.50
2019-03-05T10:06:48.958Z,26.73
2019-03-05T10:09:15.327Z,26.58
2019-03-05T10:11:41.704Z,26.38
2019-03-05T10:14:08.059Z,26.81
2019-03-05T10:16:34.407Z,26.50
2019-03-05T10:19:00.906Z,26.38
2019-03-05T10:21:27.247Z,26.72
2019-03-05T10:23:53.577Z,27.14
2019-03-05T10:26:19.982Z,26.70
2019-03-05T10:28:46.342Z,26.56
2019-03-05T10:31:12.719Z,26.52
2019-03-05T10:33:39.079Z,26.78
2019-03-05T10:36:05.411Z,26.62
2019-03-05T10:38:31.757Z,26.59
2019-03-05T10:40:58.122Z,26.63
2019-03-05T10:43:24.471Z,26.96
2019-03-05T10:45:50.789Z,26.76
2019-03-05T10:48:17.223Z,26.85
2019-03-05T10:50:43.452Z,26.95
2019-03-05T10:53:09.817Z,26.73
2019-03-05T10:55:36.178Z,26.55
2019-03-05T10:58:02.512Z,26.60
2019-03-05T11:00:28.847Z,26.68
2019-03-05T11:02:55.200Z,27.05
2019-03-05T11:05:21.549Z,26.72
2019-03-05T11:07:47.891Z,26.60
2019-03-05T11:10:14.348Z,26.67
2019-03-05T11:12:40.714Z,26.72
2019-03-05T11:15:07.044Z,26.82
2019-03-05T11:17:33.463Z,27.04
2019-03-05T11:19:59.794Z,26.62
2019-03-05T11:22:26.221Z,26.56
2019-03-05T11:24:52.641Z,26.59
2019-03-05T11:27:19.012Z,26.69
2019-03-05T11:29:45.376Z,26.90
2019-03-05T11:32:13.705Z,26.72
2019-03-05T11:34:40.116Z,26.63
2019-03-05T11:37:06.500Z,26.87
2019-03-05T11:39:32.878Z,27.07
2019-03-05T11:41:59.212Z,27.06
2019-03-05T11:44:25.548Z,27.10
2019-03-05T11:46:51.999Z,27.11
2019-03-05T11:49:18.321Z,27.05
2019-03-05T11:51:44.679Z,27.46
2019-03-05T11:54:11.003Z,27.22
2019-03-05T11:56:37.368Z,26.93
2019-03-05T11:59:03.698Z,27.13
2019-03-05T12:01:30.160Z,26.99
2019-03-05T12:03:56.504Z,27.06
2019-03-05T12:06:22.841Z,26.93
2019-03-05T12:08:49.215Z,27.06
2019-03-05T12:11:15.525Z,26.99
2019-03-05T12:13:41.873Z,27.23
2019-03-05T12:16:08.346Z,27.12
2019-03-05T12:18:34.764Z,26.87
2019-03-05T12:21:01.154Z,26.84
2019-03-05T12:23:27.495Z,26.84
2019-03-05T12:25:53.874Z,26.78
2019-03-05T12:28:20.206Z,26.96
2019-03-05T12:30:46.677Z,26.94
2019-03-05T12:33:13.038Z,26.96
2019-03-05T12:35:39.362Z,27.04
2019-03-05T12:38:05.856Z,26.87
2019-03-05T12:40:32.279Z,27.23
2019-03-05T12:42:58.640Z,27.00
2019-03-05T12:45:25.123Z,26.98
2019-03-05T12:47:51.518Z,27.00
2019-03-05T12:50:17.838Z,27.14
2019-03-05T12:52:44.423Z,27.08
2019-03-05T12:55:10.699Z,27.19
2019-03-05T12:57:38.239Z,27.13
2019-03-05T13:00:04.595Z,27.71
2019-03-05T13:02:30.923Z,27.57
2019-03-05T13:04:57.257Z,27.73
2019-03-05T13:07:23.673Z,27.07
2019-03-05T13:09:52.639Z,27.74
2019-03-05T13:12:16.393Z,28.25
2019-03-05T13:14:43.815Z,27.46
2019-03-05T13:17:09.087Z,27.46
2019-03-05T13:19:35.438Z,28.15
2019-03-05T13:22:01.766Z,27.99
2019-03-05T13:24:28.127Z,28.63
2019-03-05T13:26:54.459Z,27.40
2019-03-05T13:29:20.810Z,28.15
2019-03-05T13:31:47.171Z,27.35
2019-03-05T13:34:14.039Z,27.01
2019-03-05T13:36:39.907Z,27.29
2019-03-05T13:39:06.239Z,27.22
2019-03-05T13:41:32.611Z,27.11
2019-03-05T13:43:59.000Z,27.06
2019-03-05T13:46:28.649Z,26.83
2019-03-05T13:48:58.467Z,26.98
2019-03-05T13:51:23.067Z,26.97
2019-03-05T13:53:44.811Z,27.14
2019-03-05T13:56:12.102Z,27.01
2019-03-05T13:58:37.480Z,27.31
2019-03-05T14:01:03.865Z,27.04
2019-03-05T14:03:30.203Z,27.20
2019-03-05T14:05:56.543Z,27.02
2019-03-05T14:08:22.984Z,26.95
2019-03-05T14:10:49.292Z,26.99
2019-03-05T14:13:15.637Z,27.06
2019-03-05T14:15:42.012Z,27.18
2019-03-05T14:18:08.442Z,27.00
2019-03-05T14:20:35.318Z,27.33
2019-03-05T14:23:03.893Z,27.12
2019-03-05T14:25:30.265Z,26.94
2019-03-05T14:27:56.644Z,26.97
2019-03-05T14:30:22.990Z,27.24
2019-03-05T14:32:49.361Z,27.21
2019-03-05T14:35:15.784Z,27.09
2019-03-05T14:37:42.153Z,27.01
2019-03-05T14:40:23.734Z,27.15
2019-03-05T14:42:34.790Z,27.30
2019-03-05T14:45:01.249Z,27.50
2019-03-05T14:47:27.567Z,27.23
2019-03-05T14:49:53.878Z,27.30
2019-03-05T14:52:20.217Z,27.37
2019-03-05T14:54:46.582Z,27.23
2019-03-05T14:57:12.958Z,27.30
2019-03-05T14:59:39.355Z,27.20
2019-03-05T15:02:05.717Z,27.10
2019-03-05T15:04:32.065Z,27.15
2019-03-05T15:06:58.383Z,27.40
2019-03-05T15:09:24.746Z,27.02
2019-03-05T15:11:51.242Z,27.17
2019-03-05T15:14:17.454Z,27.23
2019-03-05T15:16:43.909Z,27.36
2019-03-05T15:19:20.978Z,27.06
2019-03-05T15:21:36.544Z,27.36
2019-03-05T15:24:02.885Z,27.29
2019-03-05T15:26:29.259Z,27.31
2019-03-05T15:28:56.702Z,27.06
2019-03-05T15:31:22.074Z,27.21
2019-03-05T15:33:48.446Z,27.08
2019-03-05T15:36:23.695Z,27.08
2019-03-05T15:38:41.107Z,27.02
2019-03-05T15:41:09.831Z,27.29
2019-03-05T15:43:36.193Z,27.34
2019-03-05T15:46:02.578Z,27.36
2019-03-05T15:48:28.937Z,27.23
2019-03-05T15:50:55.239Z,27.25
2019-03-05T15:53:21.581Z,27.33
2019-03-05T15:55:47.935Z,27.36
2019-03-05T15:58:14.279Z,27.38
2019-03-05T16:00:40.646Z,27.08
2019-03-05T16:03:07.023Z,27.24
2019-03-05T16:05:33.400Z,27.20
2019-03-05T16:08:01.021Z,27.33
2019-03-05T16:10:26.066Z,27.18
2019-03-05T16:12:52.564Z,27.37
2019-03-05T16:15:19.001Z,27.30
2019-03-05T16:17:45.393Z,27.30
2019-03-05T16:20:11.785Z,27.22
2019-03-05T16:22:38.136Z,27.20
2019-03-05T16:25:04.486Z,27.34
2019-03-05T16:27:31.452Z,27.29
2019-03-05T16:29:57.271Z,27.15
2019-03-05T16:32:26.841Z,27.25
2019-03-05T16:34:49.935Z,27.31
2019-03-05T16:37:16.258Z,27.34
2019-03-05T16:39:42.637Z,27.34
2019-03-05T16:42:09.027Z,27.22
2019-03-05T16:44:36.070Z,27.30
2019-03-05T16:47:01.759Z,27.35
2019-03-05T16:49:28.133Z,27.23
2019-03-05T16:51:54.453Z,27.37
2019-03-05T16:54:20.792Z,27.27
2019-03-05T16:56:47.130Z,27.26
2019-03-05T16:59:13.465Z,27.31
2019-03-05T17:01:39.856Z,27.33
2019-03-05T17:04:06.170Z,27.36
2019-03-05T17:06:32.495Z,27.24
2019-03-05T17:08:58.836Z,27.27
2019-03-05T17:11:25.157Z,27.39
2019-03-05T17:13:51.489Z,27.51
2019-03-05T17:16:17.879Z,27.41
2019-03-05T17:18:44.206Z,27.55
2019-03-05T17:21:10.532Z,27.55
2019-03-05T17:23:36.909Z,27.55
2019-03-05T17:26:03.275Z,27.65
2019-03-05T17:28:29.644Z,27.60
2019-03-05T17:30:55.998Z,27.50
2019-03-05T17:33:22.337Z,27.65
2019-03-05T17:35:48.668Z,27.60
2019-03-05T17:38:14.997Z,27.78
2019-03-05T17:40:41.424Z,27.85
2019-03-05T17:43:07.730Z,27.84
2019-03-05T17:45:34.062Z,27.84
2019-03-05T17:48:00.389Z,27.93
2019-03-05T17:50:26.756Z,27.96
2019-03-05T17:52:53.052Z,28.01
2019-03-05T17:55:24.564Z,28.08
2019-03-05T17:57:45.759Z,28.07
2019-03-05T18:00:12.086Z,27.98
2019-03-05T18:02:38.416Z,28.19
2019-03-05T18:05:04.728Z,28.04
2019-03-05T18:07:31.061Z,28.12
2019-03-05T18:09:57.394Z,28.23
2019-03-05T18:12:23.766Z,28.22
2019-03-05T18:14:50.137Z,28.21
2019-03-05T18:17:16.449Z,28.26
2019-03-05T18:19:42.776Z,28.24
2019-03-05T18:22:09.160Z,28.27
2019-03-05T18:24:35.515Z,28.24
2019-03-05T18:27:01.843Z,28.21
2019-03-05T18:29:28.201Z,28.18
2019-03-05T18:31:54.572Z,28.15
2019-03-05T18:34:20.909Z,28.19
2019-03-05T18:36:47.279Z,28.20
2019-03-05T18:39:13.616Z,28.24
2019-03-05T18:41:41.330Z,28.28
2019-03-05T18:44:06.302Z,28.32
2019-03-05T18:46:32.691Z,28.30
2019-03-05T18:48:59.021Z,28.33
2019-03-05T18:51:25.351Z,28.35
2019-03-05T18:53:51.739Z,28.37
2019-03-05T18:56:18.032Z,28.39
2019-03-05T18:58:44.362Z,28.42
2019-03-05T19:01:10.787Z,28.38
2019-03-05T19:03:37.071Z,28.42
2019-03-05T19:06:03.407Z,28.47
2019-03-05T19:08:29.771Z,28.52
2019-03-05T19:10:56.121Z,28.54
2019-03-05T19:13:22.492Z,28.55
2019-03-05T19:15:48.845Z,28.57
2019-03-05T19:18:15.295Z,28.52
2019-03-05T19:20:41.626Z,28.50
2019-03-05T19:23:08.059Z,28.47
2019-03-05T19:25:34.347Z,28.52
2019-03-05T19:28:00.729Z,28.57
2019-03-05T19:30:27.139Z,28.63
2019-03-05T19:32:53.593Z,28.65
2019-03-05T19:35:19.917Z,28.65
2019-03-05T19:37:46.214Z,28.66
2019-03-05T19:40:12.646Z,28.67
2019-03-05T19:42:38.916Z,28.67
2019-03-05T19:45:05.340Z,28.71
2019-03-05T19:47:31.670Z,28.75
2019-03-05T19:49:58.028Z,28.75
2019-03-05T19:52:24.362Z,28.75
2019-03-05T19:54:50.699Z,28.74
2019-03-05T19:57:17.036Z,28.80
2019-03-05T19:59:43.362Z,28.84
2019-03-05T20:02:09.720Z,28.85
2019-03-05T20:04:36.088Z,28.86
2019-03-05T20:07:02.441Z,28.90
2019-03-05T20:09:28.769Z,28.79
2019-03-05T20:11:55.119Z,28.79
2019-03-05T20:14:21.557Z,28.85
2019-03-05T20:16:49.903Z,28.86
2019-03-05T20:19:14.258Z,28.89
2019-03-05T20:21:40.591Z,28.94
2019-03-05T20:24:06.976Z,28.99
2019-03-05T20:26:33.304Z,28.98
2019-03-05T20:28:59.688Z,28.99
2019-03-05T20:31:26.057Z,29.05
2019-03-05T20:33:52.365Z,29.00
2019-03-05T20:36:18.693Z,29.03
2019-03-05T20:38:45.059Z,29.07
2019-03-05T20:41:11.420Z,29.10
2019-03-05T20:43:37.749Z,29.12
2019-03-05T20:46:04.089Z,29.16
2019-03-05T20:48:30.414Z,29.17
2019-03-05T20:50:56.763Z,29.17
2019-03-05T20:53:23.135Z,29.29
2019-03-05T20:55:49.641Z,29.23
2019-03-05T20:58:16.082Z,29.19
2019-03-05T21:00:42.412Z,29.17
2019-03-05T21:03:08.742Z,29.22
2019-03-05T21:05:35.070Z,29.28
2019-03-05T21:08:01.392Z,29.31
2019-03-05T21:10:27.725Z,29.45
2019-03-05T21:12:54.125Z,29.44
2019-03-05T21:15:20.461Z,29.46
2019-03-05T21:17:46.884Z,29.48
2019-03-05T21:20:13.221Z,29.58
2019-03-05T21:22:39.552Z,29.64
2019-03-05T21:25:05.948Z,29.80
2019-03-05T21:27:32.320Z,29.85
2019-03-05T21:29:58.660Z,29.93
2019-03-05T21:32:24.996Z,30.01
2019-03-05T21:34:51.327Z,30.18
2019-03-05T21:37:17.719Z,30.30
2019-03-05T21:39:44.057Z,30.41
2019-03-05T21:42:10.535Z,30.53
2019-03-05T21:44:36.922Z,30.59
2019-03-05T21:47:03.260Z,30.59
2019-03-05T21:49:29.631Z,30.74
2019-03-05T21:51:55.921Z,30.88
2019-03-05T21:54:22.257Z,31.07
2019-03-05T21:56:48.635Z,31.14
2019-03-05T21:59:14.963Z,31.27
2019-03-05T22:01:41.294Z,31.30
2019-03-05T22:04:07.632Z,31.38
2019-03-05T22:06:33.955Z,31.50
2019-03-05T22:09:00.326Z,31.65
2019-03-05T22:11:26.708Z,31.77
2019-03-05T22:13:53.144Z,31.84
2019-03-05T22:16:19.472Z,31.88
2019-03-05T22:18:45.807Z,31.91
2019-03-05T22:21:12.138Z,31.96
2019-03-05T22:23:38.501Z,32.06
2019-03-05T22:26:04.850Z,32.24
2019-03-05T22:28:31.187Z,32.38
2019-03-05T22:30:57.511Z,32.44
2019-03-05T22:33:23.855Z,32.46
2019-03-05T22:35:50.221Z,32.44
2019-03-05T22:38:16.525Z,32.53
2019-03-05T22:40:42.856Z,32.64
2019-03-05T22:43:09.210Z,32.75
2019-03-05T22:45:35.539Z,32.87
2019-03-05T22:48:01.876Z,32.94
2019-03-05T22:50:28.205Z,32.96
2019-03-05T22:52:54.581Z,33.04
2019-03-05T22:55:20.928Z,33.04
2019-03-05T22:57:47.383Z,33.16
2019-03-05T23:00:13.769Z,33.22
2019-03-05T23:02:40.075Z,33.28
2019-03-05T23:05:06.410Z,33.34
2019-03-05T23:07:32.834Z,33.43
2019-03-05T23:09:59.158Z,33.47
2019-03-05T23:12:25.499Z,33.49
2019-03-05T23:14:51.862Z,33.57
2019-03-05T23:17:18.192Z,33.67
2019-03-05T23:19:44.575Z,33.69
2019-03-05T23:22:10.970Z,33.76
2019-03-05T23:24:37.260Z,33.80
2019-03-05T23:27:03.589Z,33.88
2019-03-05T23:29:30.009Z,33.94
2019-03-05T23:31:56.361Z,33.94
2019-03-05T23:34:22.685Z,33.95
2019-03-05T23:36:49.024Z,34.05
2019-03-05T23:39:15.390Z,34.15
2019-03-05T23:41:41.753Z,34.22
2019-03-05T23:44:08.049Z,34.26
2019-03-05T23:46:34.421Z,34.25
2019-03-05T23:49:00.694Z,34.30
2019-03-05T23:51:27.069Z,34.27
2019-03-05T23:53:53.416Z,34.34
2019-03-05T23:56:19.749Z,34.41
2019-03-05T23:58:46.079Z,34.50
